createdAt,value
2022-08-17T00:00:00.336Z,4.30
2022-08-17T00:02:09.851Z,4.13
2022-08-17T00:04:27.844Z,4.40
2022-08-17T00:06:31.299Z,4.10
2022-08-17T00:08:35.825Z,4.60
2022-08-17T00:10:38.816Z,4.70
2022-08-17T00:12:44.596Z,3.97
2022-08-17T00:14:50.327Z,4.50
2022-08-17T00:16:57.433Z,4.30
2022-08-17T00:19:08.366Z,5.03
2022-08-17T00:21:11.516Z,4.97
2022-08-17T00:23:15.952Z,4.77
2022-08-17T00:25:19.557Z,4.50
2022-08-17T00:27:22.298Z,5.00
2022-08-17T00:29:24.966Z,4.43
2022-08-17T00:31:27.715Z,4.60
2022-08-17T00:33:31.815Z,4.33
2022-08-17T00:35:35.837Z,4.93
2022-08-17T00:37:38.919Z,4.53
2022-08-17T00:39:41.641Z,4.90
2022-08-17T00:41:44.541Z,5.10
2022-08-17T00:43:48.490Z,4.83
2022-08-17T00:45:51.629Z,4.80
2022-08-17T00:47:54.301Z,4.80
2022-08-17T00:49:56.976Z,4.60
2022-08-17T00:52:04.418Z,4.53
2022-08-17T00:54:16.413Z,4.53
2022-08-17T00:56:20.959Z,4.60
2022-08-17T00:58:36.264Z,4.90
2022-08-17T01:00:41.366Z,4.77
2022-08-17T01:02:45.221Z,4.90
2022-08-17T01:04:48.953Z,4.80
2022-08-17T01:06:52.159Z,4.47
2022-08-17T01:08:57.463Z,4.97
2022-08-17T01:11:05.275Z,4.17
2022-08-17T01:13:07.989Z,4.80
2022-08-17T01:15:12.036Z,3.97
2022-08-17T01:17:14.680Z,4.70
2022-08-17T01:19:20.150Z,5.60
2022-08-17T01:21:27.157Z,4.57
2022-08-17T01:23:31.531Z,5.27
2022-08-17T01:25:34.138Z,4.73
2022-08-17T01:27:37.029Z,4.87
2022-08-17T01:29:40.115Z,5.30
2022-08-17T01:31:45.437Z,4.60
2022-08-17T01:33:48.105Z,5.33
2022-08-17T01:35:50.958Z,5.93
2022-08-17T01:37:53.644Z,5.60
2022-08-17T01:40:01.061Z,4.90
2022-08-17T01:42:07.177Z,5.07
2022-08-17T01:44:09.818Z,5.67
2022-08-17T01:46:15.892Z,5.20
2022-08-17T01:48:19.586Z,4.67
2022-08-17T01:50:23.848Z,5.13
2022-08-17T01:52:26.563Z,4.73
2022-08-17T01:54:29.378Z,5.10
2022-08-17T01:56:34.204Z,5.73
2022-08-17T01:58:36.952Z,5.17
2022-08-17T02:00:59.797Z,5.10
2022-08-17T02:03:03.625Z,5.10
2022-08-17T02:05:06.466Z,5.20
2022-08-17T02:07:09.116Z,4.93
2022-08-17T02:09:14.711Z,5.10
2022-08-17T02:11:20.966Z,5.17
2022-08-17T02:13:28.022Z,4.90
2022-08-17T02:15:30.849Z,5.00
2022-08-17T02:17:34.185Z,4.53
2022-08-17T02:19:37.021Z,4.87
2022-08-17T02:21:39.913Z,5.53
2022-08-17T02:23:43.689Z,5.50
2022-08-17T02:25:48.713Z,5.53
2022-08-17T02:27:51.359Z,5.20
2022-08-17T02:29:55.327Z,6.03
2022-08-17T02:31:58.476Z,4.73
2022-08-17T02:34:04.626Z,4.70
2022-08-17T02:36:08.893Z,5.47
2022-08-17T02:38:11.569Z,5.57
2022-08-17T02:40:14.261Z,5.20
2022-08-17T02:42:17.248Z,5.63
2022-08-17T02:44:39.862Z,5.10
2022-08-17T02:46:43.799Z,5.90
2022-08-17T02:48:46.441Z,5.20
2022-08-17T02:50:49.220Z,5.10
2022-08-17T02:53:01.477Z,5.10
2022-08-17T02:55:05.527Z,5.80
2022-08-17T02:57:09.113Z,5.20
2022-08-17T02:59:11.927Z,5.47
2022-08-17T03:01:14.705Z,5.10
2022-08-17T03:03:19.658Z,4.60
2022-08-17T03:05:24.307Z,4.97
2022-08-17T03:07:26.954Z,5.30
2022-08-17T03:09:29.634Z,4.80
2022-08-17T03:11:32.280Z,5.10
2022-08-17T03:13:35.330Z,5.10
2022-08-17T03:15:40.649Z,5.10
2022-08-17T03:17:46.431Z,5.00
2022-08-17T03:19:50.370Z,5.40
2022-08-17T03:21:55.126Z,5.17
2022-08-17T03:23:58.073Z,5.47
2022-08-17T03:26:00.876Z,4.67
2022-08-17T03:28:03.764Z,5.50
2022-08-17T03:30:07.414Z,5.13
2022-08-17T03:32:12.714Z,5.17
2022-08-17T03:34:15.451Z,5.30
2022-08-17T03:36:19.768Z,4.70
2022-08-17T03:38:22.437Z,5.53
2022-08-17T03:40:34.494Z,5.40
2022-08-17T03:42:48.996Z,5.20
2022-08-17T03:44:52.205Z,5.27
2022-08-17T03:47:10.486Z,4.83
2022-08-17T03:49:24.103Z,5.43
2022-08-17T03:51:42.494Z,5.80
2022-08-17T03:54:00.205Z,5.10
2022-08-17T03:56:13.965Z,5.60
2022-08-17T03:58:16.629Z,4.90
2022-08-17T04:00:19.720Z,5.37
2022-08-17T04:02:24.214Z,5.27
2022-08-17T04:04:27.715Z,5.03
2022-08-17T04:06:32.285Z,5.43
2022-08-17T04:08:35.434Z,5.17
2022-08-17T04:10:38.468Z,5.43
2022-08-17T04:12:49.133Z,5.50
2022-08-17T04:14:54.659Z,5.53
2022-08-17T04:16:57.776Z,5.63
2022-08-17T04:19:00.365Z,5.47
2022-08-17T04:21:03.016Z,5.47
2022-08-17T04:23:09.340Z,5.43
2022-08-17T04:25:16.215Z,5.40
2022-08-17T04:27:18.878Z,5.57
2022-08-17T04:29:21.500Z,5.80
2022-08-17T04:31:24.562Z,5.47
2022-08-17T04:33:27.977Z,5.00
2022-08-17T04:35:32.560Z,5.77
2022-08-17T04:37:35.401Z,5.40
2022-08-17T04:39:39.504Z,5.20
2022-08-17T04:41:53.175Z,6.30
2022-08-17T04:43:58.182Z,5.90
2022-08-17T04:46:02.135Z,5.77
2022-08-17T04:48:04.864Z,5.20
2022-08-17T04:50:08.442Z,5.53
2022-08-17T04:52:11.153Z,6.20
2022-08-17T04:54:33.781Z,5.80
2022-08-17T04:56:38.378Z,5.73
2022-08-17T04:58:40.995Z,5.37
2022-08-17T05:00:44.144Z,5.80
2022-08-17T05:02:49.865Z,5.80
2022-08-17T05:04:53.204Z,6.10
2022-08-17T05:06:58.594Z,6.30
2022-08-17T05:09:01.676Z,5.80
2022-08-17T05:11:05.254Z,6.17
2022-08-17T05:13:10.875Z,5.90
2022-08-17T05:15:15.847Z,6.53
2022-08-17T05:17:18.971Z,5.63
2022-08-17T05:19:21.612Z,5.70
2022-08-17T05:21:24.424Z,6.00
2022-08-17T05:23:29.227Z,6.17
2022-08-17T05:25:47.485Z,6.33
2022-08-17T05:27:50.459Z,6.00
2022-08-17T05:29:54.371Z,5.70
2022-08-17T05:31:57.471Z,6.33
2022-08-17T05:34:00.146Z,6.50
2022-08-17T05:36:03.257Z,6.57
2022-08-17T05:38:06.043Z,7.00
2022-08-17T05:40:09.857Z,6.50
2022-08-17T05:42:12.543Z,6.00
2022-08-17T05:44:15.269Z,6.37
2022-08-17T05:46:21.784Z,6.00
2022-08-17T05:48:35.554Z,5.90
2022-08-17T05:50:47.650Z,5.80
2022-08-17T05:52:56.167Z,6.50
2022-08-17T05:55:07.124Z,5.80
2022-08-17T05:57:21.014Z,7.17
2022-08-17T05:59:26.814Z,6.00
2022-08-17T06:01:34.622Z,6.43
2022-08-17T06:03:44.121Z,5.90
2022-08-17T06:05:53.715Z,6.27
2022-08-17T06:08:01.244Z,6.20
2022-08-17T06:10:06.558Z,6.00
2022-08-17T06:12:22.048Z,6.17
2022-08-17T06:14:37.260Z,6.50
2022-08-17T06:16:42.534Z,6.17
2022-08-17T06:18:57.842Z,5.77
2022-08-17T06:21:02.735Z,6.87
2022-08-17T06:23:06.543Z,6.47
2022-08-17T06:25:14.645Z,6.40
2022-08-17T06:27:20.424Z,6.70
2022-08-17T06:29:29.275Z,5.60
2022-08-17T06:31:34.092Z,5.90
2022-08-17T06:33:39.348Z,5.93
2022-08-17T06:35:48.910Z,8.00
2022-08-17T06:38:02.219Z,7.07
2022-08-17T06:40:16.311Z,5.30
2022-08-17T06:43:02.054Z,5.90
2022-08-17T06:44:51.811Z,6.40
2022-08-17T06:46:56.137Z,9.37
2022-08-17T06:49:08.102Z,5.37
2022-08-17T06:51:15.740Z,6.90
2022-08-17T06:53:21.204Z,21.67
2022-08-17T06:55:27.171Z,8.30
2022-08-17T06:57:31.680Z,6.60
2022-08-17T06:59:56.332Z,7.40
2022-08-17T07:02:01.242Z,6.63
2022-08-17T07:04:12.003Z,14.43
2022-08-17T07:06:15.392Z,9.43
2022-08-17T07:08:19.390Z,14.23
2022-08-17T07:10:22.360Z,7.47
2022-08-17T07:12:26.211Z,8.20
2022-08-17T07:14:33.160Z,6.67
2022-08-17T07:16:41.082Z,9.83
2022-08-17T07:18:43.792Z,7.00
2022-08-17T07:20:48.340Z,6.70
2022-08-17T07:22:59.686Z,7.37
2022-08-17T07:25:04.937Z,7.23
2022-08-17T07:27:11.572Z,6.33
2022-08-17T07:29:14.340Z,6.97
2022-08-17T07:31:17.570Z,6.90
2022-08-17T07:33:27.452Z,5.97
2022-08-17T07:35:41.437Z,6.17
2022-08-17T07:37:53.331Z,6.97
2022-08-17T07:39:58.778Z,6.73
2022-08-17T07:42:18.400Z,5.97
2022-08-17T07:44:21.072Z,6.50
2022-08-17T07:46:35.980Z,6.43
2022-08-17T07:48:38.217Z,7.03
2022-08-17T07:50:40.845Z,6.27
2022-08-17T07:52:47.963Z,6.60
2022-08-17T07:54:55.971Z,7.27
2022-08-17T07:57:00.170Z,5.83
2022-08-17T07:59:08.340Z,5.90
2022-08-17T08:01:13.299Z,6.10
2022-08-17T08:03:22.939Z,6.47
2022-08-17T08:05:49.812Z,7.00
2022-08-17T08:07:55.226Z,6.30
2022-08-17T08:10:06.131Z,5.60
2022-08-17T08:12:23.799Z,6.50
2022-08-17T08:14:33.562Z,5.83
2022-08-17T08:16:36.656Z,5.70
2022-08-17T08:18:54.639Z,6.87
2022-08-17T08:21:01.330Z,6.10
2022-08-17T08:23:06.502Z,5.70
2022-08-17T08:25:16.738Z,5.33
2022-08-17T08:27:25.288Z,5.13
2022-08-17T08:29:30.795Z,4.83
2022-08-17T08:31:44.755Z,4.90
2022-08-17T08:33:51.715Z,4.77
2022-08-17T08:35:55.769Z,5.57
2022-08-17T08:38:06.254Z,5.10
2022-08-17T08:40:14.363Z,5.10
2022-08-17T08:42:21.197Z,5.17
2022-08-17T08:45:00.884Z,5.40
2022-08-17T08:46:59.881Z,5.30
2022-08-17T08:49:58.958Z,4.80
2022-08-17T08:51:55.600Z,5.20
2022-08-17T08:54:01.497Z,4.57
2022-08-17T08:56:06.543Z,4.40
2022-08-17T08:58:32.212Z,5.10
2022-08-17T09:00:37.293Z,5.77
2022-08-17T09:02:48.426Z,5.80
2022-08-17T09:05:13.912Z,5.13
2022-08-17T09:07:24.131Z,4.80
2022-08-17T09:09:30.318Z,4.50
2022-08-17T09:12:01.973Z,5.30
2022-08-17T09:14:06.110Z,5.03
2022-08-17T09:16:29.712Z,5.20
2022-08-17T09:19:00.877Z,4.53
2022-08-17T09:20:58.112Z,4.10
2022-08-17T09:23:03.847Z,4.57
2022-08-17T09:25:09.093Z,4.90
2022-08-17T09:27:15.557Z,5.50
2022-08-17T09:29:18.420Z,4.83
2022-08-17T09:31:23.841Z,5.60
2022-08-17T09:33:27.609Z,5.00
2022-08-17T09:35:36.978Z,4.57
2022-08-17T09:37:52.292Z,4.50
2022-08-17T09:40:04.519Z,4.87
2022-08-17T09:42:08.725Z,4.50
2022-08-17T09:44:23.069Z,5.03
2022-08-17T09:46:28.029Z,4.17
2022-08-17T09:48:33.135Z,5.37
2022-08-17T09:51:03.184Z,4.00
2022-08-17T09:53:02.727Z,4.77
2022-08-17T09:55:05.781Z,4.60
2022-08-17T09:57:31.683Z,4.13
2022-08-17T09:59:44.693Z,4.40
2022-08-17T10:01:50.773Z,4.23
2022-08-17T10:04:06.416Z,5.00
2022-08-17T10:06:13.164Z,4.10
2022-08-17T10:08:23.788Z,4.80
2022-08-17T10:10:29.576Z,4.40
2022-08-17T10:12:47.112Z,4.90
2022-08-17T10:15:00.069Z,3.97
2022-08-17T10:17:15.362Z,4.47
2022-08-17T10:19:22.162Z,4.20
2022-08-17T10:21:35.754Z,3.90
2022-08-17T10:23:52.314Z,4.73
2022-08-17T10:26:07.910Z,4.40
2022-08-17T10:28:19.712Z,4.03
2022-08-17T10:30:26.606Z,4.30
2022-08-17T10:32:32.612Z,4.40
2022-08-17T10:34:44.042Z,4.07
2022-08-17T10:36:49.027Z,4.10
2022-08-17T10:39:00.403Z,4.60
2022-08-17T10:41:07.553Z,4.23
2022-08-17T10:43:20.956Z,3.90
2022-08-17T10:45:26.833Z,4.20
2022-08-17T10:47:56.050Z,3.70
2022-08-17T10:50:42.517Z,3.90
2022-08-17T10:52:48.560Z,3.83
2022-08-17T10:55:08.812Z,3.97
2022-08-17T10:57:35.363Z,3.50
2022-08-17T10:59:50.571Z,3.93
2022-08-17T11:02:13.764Z,3.90
2022-08-17T11:04:25.833Z,3.63
2022-08-17T11:06:33.118Z,4.30
2022-08-17T11:08:50.422Z,3.40
2022-08-17T11:11:01.755Z,3.50
2022-08-17T11:13:07.641Z,3.63
2022-08-17T11:15:19.533Z,3.43
2022-08-17T11:17:37.632Z,3.70
2022-08-17T11:19:55.800Z,3.60
2022-08-17T11:22:07.606Z,4.03
2022-08-17T11:24:15.009Z,4.50
2022-08-17T11:26:26.050Z,4.00
2022-08-17T11:28:34.660Z,3.90
2022-08-17T11:30:44.994Z,3.93
2022-08-17T11:32:55.007Z,3.70
2022-08-17T11:35:08.292Z,4.00
2022-08-17T11:37:20.119Z,3.60
2022-08-17T11:39:37.828Z,4.10
2022-08-17T11:41:46.223Z,3.80
2022-08-17T11:44:03.538Z,3.73
2022-08-17T11:46:15.813Z,4.03
2022-08-17T11:48:41.525Z,3.30
2022-08-17T11:50:59.036Z,3.57
2022-08-17T11:53:01.680Z,3.17
2022-08-17T11:55:33.528Z,3.20
2022-08-17T11:57:47.128Z,3.50
2022-08-17T11:59:58.794Z,3.30
2022-08-17T12:02:02.621Z,3.77
2022-08-17T12:04:26.042Z,3.37
2022-08-17T12:06:33.304Z,3.87
2022-08-17T12:08:36.589Z,3.20
2022-08-17T12:10:43.058Z,3.07
2022-08-17T12:12:46.892Z,3.33
2022-08-17T12:15:10.170Z,3.73
2022-08-17T12:17:14.295Z,3.23
2022-08-17T12:19:34.396Z,3.30
2022-08-17T12:21:42.416Z,3.37
2022-08-17T12:23:50.458Z,3.27
2022-08-17T12:25:56.674Z,3.47
2022-08-17T12:28:06.468Z,2.90
2022-08-17T12:30:12.173Z,3.40
2022-08-17T12:32:17.597Z,3.53
2022-08-17T12:34:21.421Z,3.30
2022-08-17T12:36:28.089Z,3.60
2022-08-17T12:38:32.288Z,3.60
2022-08-17T12:40:36.031Z,2.97
2022-08-17T12:42:40.312Z,3.40
2022-08-17T12:44:49.966Z,3.20
2022-08-17T12:46:55.874Z,3.90
2022-08-17T12:49:12.749Z,3.37
2022-08-17T12:51:15.422Z,3.33
2022-08-17T12:53:21.926Z,3.83
2022-08-17T12:55:25.524Z,3.50
2022-08-17T12:57:40.330Z,3.40
2022-08-17T12:59:45.224Z,3.90
2022-08-17T13:01:48.426Z,3.40
2022-08-17T13:03:54.626Z,3.27
2022-08-17T13:05:58.805Z,3.40
2022-08-17T13:08:01.583Z,3.70
2022-08-17T13:10:06.802Z,3.40
2022-08-17T13:12:09.588Z,3.00
2022-08-17T13:14:12.281Z,3.23
2022-08-17T13:16:17.421Z,3.63
2022-08-17T13:18:39.726Z,3.70
2022-08-17T13:20:42.310Z,3.57
2022-08-17T13:22:45.327Z,3.73
2022-08-17T13:24:52.938Z,3.47
2022-08-17T13:27:08.096Z,3.60
2022-08-17T13:29:21.780Z,3.47
2022-08-17T13:31:32.896Z,2.93
2022-08-17T13:33:44.870Z,3.20
2022-08-17T13:35:50.283Z,3.50
2022-08-17T13:37:58.388Z,3.47
2022-08-17T13:40:03.790Z,3.30
2022-08-17T13:42:24.237Z,3.50
2022-08-17T13:44:31.007Z,3.13
2022-08-17T13:46:34.621Z,3.70
2022-08-17T13:48:39.182Z,3.27
2022-08-17T13:50:45.319Z,3.10
2022-08-17T13:53:02.377Z,3.07
2022-08-17T13:55:08.278Z,3.30
2022-08-17T13:57:21.162Z,3.00
2022-08-17T13:59:53.900Z,3.47
2022-08-17T14:01:54.156Z,3.17
2022-08-17T14:03:58.468Z,3.50
2022-08-17T14:06:02.610Z,3.97
2022-08-17T14:08:07.217Z,4.37
2022-08-17T14:10:14.763Z,3.50
2022-08-17T14:12:20.167Z,3.53
2022-08-17T14:14:24.663Z,3.80
2022-08-17T14:16:27.676Z,3.80
2022-08-17T14:18:41.995Z,3.97
2022-08-17T14:20:56.628Z,4.60
2022-08-17T14:22:59.761Z,3.57
2022-08-17T14:25:03.638Z,3.70
2022-08-17T14:27:06.958Z,3.97
2022-08-17T14:29:14.910Z,3.57
2022-08-17T14:31:20.524Z,3.60
2022-08-17T14:33:26.821Z,3.63
2022-08-17T14:35:30.265Z,4.00
2022-08-17T14:37:34.715Z,3.50
2022-08-17T14:39:38.300Z,3.77
2022-08-17T14:41:41.764Z,3.47
2022-08-17T14:43:44.907Z,3.10
2022-08-17T14:45:49.163Z,3.20
2022-08-17T14:47:52.149Z,3.80
2022-08-17T14:49:54.971Z,3.70
2022-08-17T14:51:57.730Z,3.30
2022-08-17T14:54:01.093Z,3.50
2022-08-17T14:56:04.035Z,3.50
2022-08-17T14:58:06.857Z,3.40
2022-08-17T15:00:10.286Z,3.37
2022-08-17T15:02:14.975Z,3.50
2022-08-17T15:04:18.648Z,3.50
2022-08-17T15:06:25.349Z,3.73
2022-08-17T15:08:28.361Z,3.60
2022-08-17T15:10:32.422Z,4.03
2022-08-17T15:12:35.582Z,3.33
2022-08-17T15:14:38.458Z,3.90
2022-08-17T15:16:41.308Z,3.93
2022-08-17T15:18:46.656Z,3.77
2022-08-17T15:20:50.116Z,3.83
2022-08-17T15:22:55.193Z,3.67
2022-08-17T15:24:58.409Z,3.80
2022-08-17T15:27:04.535Z,3.70
2022-08-17T15:29:07.487Z,4.13
2022-08-17T15:31:10.256Z,3.83
2022-08-17T15:33:14.990Z,3.80
2022-08-17T15:35:27.498Z,4.17
2022-08-17T15:37:31.838Z,3.83
2022-08-17T15:39:34.521Z,3.90
2022-08-17T15:41:37.732Z,3.90
2022-08-17T15:43:40.442Z,4.10
2022-08-17T15:45:43.214Z,4.03
2022-08-17T15:47:46.516Z,4.00
2022-08-17T15:49:51.022Z,3.90
2022-08-17T15:51:55.311Z,4.40
2022-08-17T15:53:59.390Z,4.20
2022-08-17T15:56:07.680Z,4.20
2022-08-17T15:58:10.867Z,3.90
2022-08-17T16:00:16.076Z,3.90
2022-08-17T16:03:13.485Z,3.77
2022-08-17T16:04:45.250Z,3.90
2022-08-17T16:06:51.034Z,3.70
2022-08-17T16:08:55.284Z,3.90
2022-08-17T16:10:59.752Z,4.30
2022-08-17T16:13:04.600Z,3.83
2022-08-17T16:15:08.628Z,3.90
2022-08-17T16:17:38.763Z,4.20
2022-08-17T16:19:34.428Z,4.03
2022-08-17T16:21:42.773Z,3.50
2022-08-17T16:23:45.977Z,4.00
2022-08-17T16:25:53.717Z,3.40
2022-08-17T16:27:57.463Z,3.70
2022-08-17T16:30:01.055Z,4.73
2022-08-17T16:32:09.384Z,4.40
2022-08-17T16:34:17.717Z,3.37
2022-08-17T16:36:23.191Z,3.87
2022-08-17T16:38:25.893Z,4.20
2022-08-17T16:40:36.050Z,3.90
2022-08-17T16:42:40.840Z,3.63
2022-08-17T16:44:43.675Z,3.83
2022-08-17T16:46:46.738Z,4.00
2022-08-17T16:48:49.945Z,4.00
2022-08-17T16:51:02.014Z,4.10
2022-08-17T16:53:08.214Z,4.33
2022-08-17T16:55:13.226Z,4.03
2022-08-17T16:57:17.516Z,3.90
2022-08-17T16:59:31.165Z,3.90
2022-08-17T17:01:43.353Z,4.10
2022-08-17T17:03:45.963Z,3.73
2022-08-17T17:05:59.879Z,4.23
2022-08-17T17:08:04.481Z,4.20
2022-08-17T17:10:10.054Z,4.20
2022-08-17T17:12:14.152Z,4.20
2022-08-17T17:14:18.143Z,3.87
2022-08-17T17:16:24.021Z,4.33
2022-08-17T17:18:42.763Z,4.20
2022-08-17T17:20:49.314Z,4.23
2022-08-17T17:23:06.575Z,3.67
2022-08-17T17:25:13.670Z,4.73
2022-08-17T17:27:23.945Z,3.80
2022-08-17T17:29:47.317Z,4.00
2022-08-17T17:31:59.571Z,3.87
2022-08-17T17:34:04.505Z,4.03
2022-08-17T17:36:34.548Z,3.83
2022-08-17T17:38:43.811Z,4.00
2022-08-17T17:40:50.987Z,4.30
2022-08-17T17:42:55.092Z,4.30
2022-08-17T17:45:02.615Z,3.90
2022-08-17T17:47:07.537Z,3.87
2022-08-17T17:49:16.410Z,3.70
2022-08-17T17:52:03.638Z,3.93
2022-08-17T17:54:07.157Z,3.73
2022-08-17T17:56:34.939Z,3.60
2022-08-17T17:58:42.663Z,4.03
2022-08-17T18:00:48.785Z,4.27
2022-08-17T18:03:02.572Z,3.97
2022-08-17T18:05:09.995Z,4.10
2022-08-17T18:07:17.869Z,3.90
2022-08-17T18:09:28.313Z,4.10
2022-08-17T18:11:51.573Z,4.23
2022-08-17T18:14:03.356Z,4.20
2022-08-17T18:16:08.186Z,3.70
2022-08-17T18:18:26.327Z,4.00
2022-08-17T18:20:36.006Z,3.80
2022-08-17T18:22:53.534Z,3.60
2022-08-17T18:24:57.763Z,4.10
2022-08-17T18:27:01.555Z,3.70
2022-08-17T18:29:16.379Z,3.67
2022-08-17T18:31:20.307Z,4.00
2022-08-17T18:33:26.838Z,4.10
2022-08-17T18:35:32.487Z,3.83
2022-08-17T18:37:39.453Z,3.40
2022-08-17T18:39:42.161Z,4.20
2022-08-17T18:41:48.033Z,3.70
2022-08-17T18:44:00.135Z,3.80
2022-08-17T18:46:18.009Z,3.90
2022-08-17T18:48:37.003Z,4.10
2022-08-17T18:50:42.169Z,3.83
2022-08-17T18:52:47.265Z,3.80
2022-08-17T18:55:02.489Z,4.17
2022-08-17T18:57:06.058Z,3.10
2022-08-17T18:59:21.726Z,3.97
2022-08-17T19:01:42.009Z,3.83
2022-08-17T19:03:48.553Z,4.10
2022-08-17T19:05:52.662Z,4.23
2022-08-17T19:07:58.891Z,3.73
2022-08-17T19:10:10.157Z,3.97
2022-08-17T19:12:23.700Z,3.90
2022-08-17T19:14:29.595Z,4.20
2022-08-17T19:16:35.726Z,4.13
2022-08-17T19:18:41.479Z,3.70
2022-08-17T19:20:48.966Z,3.90
2022-08-17T19:22:58.617Z,3.70
2022-08-17T19:25:09.352Z,4.20
2022-08-17T19:27:15.254Z,4.07
2022-08-17T19:29:22.857Z,3.97
2022-08-17T19:31:27.329Z,4.03
2022-08-17T19:33:31.324Z,4.07
2022-08-17T19:35:42.000Z,4.37
2022-08-17T19:37:51.342Z,3.77
2022-08-17T19:39:57.882Z,3.97
2022-08-17T19:42:02.588Z,4.07
2022-08-17T19:44:15.914Z,4.23
2022-08-17T19:46:25.893Z,3.87
2022-08-17T19:48:35.665Z,4.07
2022-08-17T19:50:41.632Z,4.30
2022-08-17T19:52:50.001Z,4.57
2022-08-17T19:54:59.562Z,3.70
2022-08-17T19:57:14.002Z,4.73
2022-08-17T19:59:19.555Z,5.00
2022-08-17T20:01:32.510Z,4.70
2022-08-17T20:03:41.902Z,5.40
2022-08-17T20:06:10.838Z,5.00
2022-08-17T20:08:16.833Z,4.90
2022-08-17T20:10:25.082Z,5.20
2022-08-17T20:12:30.243Z,4.63
2022-08-17T20:14:36.919Z,5.47
2022-08-17T20:16:39.587Z,4.70
2022-08-17T20:18:48.874Z,4.30
2022-08-17T20:20:57.557Z,5.03
2022-08-17T20:23:04.637Z,5.07
2022-08-17T20:25:10.487Z,4.90
2022-08-17T20:27:16.215Z,5.33
2022-08-17T20:29:37.736Z,4.70
2022-08-17T20:31:45.670Z,7.10
2022-08-17T20:33:48.773Z,5.60
2022-08-17T20:36:12.915Z,5.23
2022-08-17T20:38:38.499Z,4.70
2022-08-17T20:41:18.428Z,5.00
2022-08-17T20:43:44.986Z,4.40
2022-08-17T20:46:07.797Z,4.50
2022-08-17T20:50:43.439Z,5.17
2022-08-17T20:52:51.331Z,5.10
2022-08-17T20:54:57.080Z,5.90
2022-08-17T20:57:09.169Z,5.27
2022-08-17T20:59:43.746Z,5.20
2022-08-17T21:02:03.725Z,5.70
2022-08-17T21:04:08.260Z,5.50
2022-08-17T21:06:17.121Z,5.30
2022-08-17T21:08:26.034Z,5.40
2022-08-17T21:10:35.982Z,5.77
2022-08-17T21:12:44.450Z,5.30
2022-08-17T21:14:57.924Z,5.70
2022-08-17T21:17:12.098Z,6.40
2022-08-17T21:19:22.095Z,5.70
2022-08-17T21:21:27.555Z,5.90
2022-08-17T21:23:40.225Z,6.10
2022-08-17T21:25:56.231Z,5.00
2022-08-17T21:28:07.358Z,5.10
2022-08-17T21:30:26.625Z,5.50
2022-08-17T21:32:30.246Z,4.63
2022-08-17T21:34:36.702Z,6.03
2022-08-17T21:36:40.030Z,5.60
2022-08-17T21:38:53.379Z,5.47
2022-08-17T21:41:01.142Z,5.43
2022-08-17T21:43:08.921Z,6.03
2022-08-17T21:45:21.706Z,5.80
2022-08-17T21:47:28.241Z,5.60
2022-08-17T21:49:30.950Z,5.87
2022-08-17T21:51:43.933Z,5.30
2022-08-17T21:53:48.374Z,5.63
2022-08-17T21:55:51.299Z,5.90
2022-08-17T21:58:14.289Z,6.30
2022-08-17T22:00:26.039Z,5.30
2022-08-17T22:02:30.514Z,5.47
2022-08-17T22:04:34.051Z,5.33
2022-08-17T22:06:38.405Z,5.30
2022-08-17T22:08:41.214Z,5.70
2022-08-17T22:10:44.813Z,5.80
2022-08-17T22:13:03.438Z,6.20
2022-08-17T22:15:09.636Z,5.70
2022-08-17T22:17:18.288Z,5.97
2022-08-17T22:19:29.686Z,6.57
2022-08-17T22:21:32.231Z,5.87
2022-08-17T22:23:46.925Z,5.90
2022-08-17T22:26:00.108Z,6.63
2022-08-17T22:28:03.397Z,6.10
2022-08-17T22:30:15.781Z,7.00
2022-08-17T22:32:36.050Z,5.97
2022-08-17T22:34:39.096Z,6.43
2022-08-17T22:36:42.701Z,6.03
2022-08-17T22:38:45.343Z,6.53
2022-08-17T22:40:49.658Z,6.40
2022-08-17T22:42:52.476Z,6.10
2022-08-17T22:44:55.184Z,7.23
2022-08-17T22:47:00.686Z,5.90
2022-08-17T22:49:04.936Z,6.30
2022-08-17T22:51:12.700Z,6.07
2022-08-17T22:53:29.252Z,6.37
2022-08-17T22:55:43.456Z,6.70
2022-08-17T22:57:57.713Z,5.60
2022-08-17T23:00:00.442Z,5.80
2022-08-17T23:02:12.406Z,5.63
2022-08-17T23:04:31.423Z,5.70
2022-08-17T23:06:34.710Z,6.20
2022-08-17T23:08:44.138Z,6.07
2022-08-17T23:10:47.613Z,6.40
2022-08-17T23:12:50.217Z,6.87
2022-08-17T23:14:57.464Z,6.30
2022-08-17T23:17:00.658Z,5.70
2022-08-17T23:19:03.342Z,6.63
2022-08-17T23:21:07.652Z,6.03
2022-08-17T23:23:10.975Z,6.60
2022-08-17T23:25:17.063Z,5.73
2022-08-17T23:27:19.923Z,6.00
2022-08-17T23:29:22.631Z,6.83
2022-08-17T23:31:26.016Z,6.50
2022-08-17T23:33:31.432Z,6.17
2022-08-17T23:35:38.946Z,6.10
2022-08-17T23:37:44.762Z,7.00
2022-08-17T23:39:47.536Z,6.60
2022-08-17T23:41:53.549Z,6.37
2022-08-17T23:43:56.294Z,6.27
2022-08-17T23:46:00.099Z,6.27
2022-08-17T23:48:07.883Z,6.30
2022-08-17T23:50:10.936Z,6.60
2022-08-17T23:52:15.042Z,6.67
2022-08-17T23:54:22.381Z,6.40
2022-08-17T23:56:25.968Z,6.33
2022-08-17T23:58:29.259Z,6.10
